createdAt,value
2019-02-21T00:00:27.108Z,0.88
2019-02-21T00:05:36.738Z,0.83
2019-02-21T00:10:46.257Z,1.14
2019-02-21T00:15:55.814Z,0.71
2019-02-21T00:21:05.459Z,0.65
2019-02-21T00:26:15.065Z,0.85
2019-02-21T00:31:24.790Z,0.80
2019-02-21T00:36:34.382Z,0.79
2019-02-21T00:41:43.865Z,0.57
2019-02-21T00:46:53.457Z,0.69
2019-02-21T00:52:03.163Z,0.91
2019-02-21T00:57:12.840Z,0.68
2019-02-21T01:02:22.219Z,0.63
2019-02-21T01:07:31.708Z,0.68
2019-02-21T01:12:41.126Z,0.44
2019-02-21T01:17:50.955Z,0.65
2019-02-21T01:23:00.320Z,0.63
2019-02-21T01:28:09.852Z,0.63
2019-02-21T01:33:19.820Z,0.71
2019-02-21T01:38:29.437Z,0.89
2019-02-21T01:43:38.927Z,0.65
2019-02-21T01:48:50.153Z,0.71
2019-02-21T01:53:49.627Z,0.59
2019-02-21T01:58:59.388Z,0.77
2019-02-21T02:04:08.720Z,0.64
2019-02-21T02:09:18.271Z,0.83
2019-02-21T02:14:27.752Z,0.74
2019-02-21T02:19:37.196Z,0.53
2019-02-21T02:24:46.678Z,0.67
2019-02-21T02:29:56.428Z,0.62
2019-02-21T02:35:05.808Z,0.51
2019-02-21T02:40:15.341Z,0.63
2019-02-21T02:45:25.024Z,0.53
2019-02-21T02:50:34.896Z,0.45
2019-02-21T02:55:44.386Z,0.50
2019-02-21T03:00:54.093Z,0.46
2019-02-21T03:06:03.727Z,0.66
2019-02-21T03:11:13.199Z,0.65
2019-02-21T03:16:22.527Z,0.76
2019-02-21T03:21:32.167Z,0.63
2019-02-21T03:26:41.470Z,0.49
2019-02-21T03:31:55.214Z,0.71
2019-02-21T03:37:00.070Z,0.63
2019-02-21T03:42:09.536Z,0.48
2019-02-21T03:47:18.944Z,0.63
2019-02-21T03:52:28.569Z,0.46
2019-02-21T03:57:37.909Z,0.67
2019-02-21T04:02:47.474Z,0.69
2019-02-21T04:07:57.131Z,0.51
2019-02-21T04:13:06.981Z,0.54
2019-02-21T04:18:16.482Z,0.55
2019-02-21T04:23:26.004Z,0.69
2019-02-21T04:28:35.485Z,0.68
2019-02-21T04:33:47.031Z,0.54
2019-02-21T04:38:46.526Z,0.59
2019-02-21T04:43:57.073Z,0.59
2019-02-21T04:48:56.596Z,0.49
2019-02-21T04:54:06.200Z,0.51
2019-02-21T04:59:15.692Z,0.48
2019-02-21T05:04:25.236Z,0.39
2019-02-21T05:09:34.777Z,0.40
2019-02-21T05:14:44.224Z,0.48
2019-02-21T05:19:53.702Z,0.44
2019-02-21T05:25:03.076Z,0.54
2019-02-21T05:30:12.559Z,0.53
2019-02-21T05:35:22.029Z,0.47
2019-02-21T05:40:31.511Z,0.52
2019-02-21T05:45:41.460Z,0.57
2019-02-21T05:50:50.886Z,0.60
2019-02-21T05:56:00.421Z,0.58
2019-02-21T06:01:09.933Z,0.47
2019-02-21T06:06:19.501Z,0.56
2019-02-21T06:11:28.959Z,0.67
2019-02-21T06:16:38.434Z,0.68
2019-02-21T06:21:50.513Z,0.59
2019-02-21T06:26:57.020Z,0.58
2019-02-21T06:38:36.113Z,0.71
2019-02-21T06:42:20.352Z,0.65
2019-02-21T06:47:13.311Z,0.71
2019-02-21T06:52:15.534Z,0.60
2019-02-21T06:57:22.021Z,0.76
2019-02-21T07:02:31.514Z,0.85
2019-02-21T07:07:41.095Z,0.85
2019-02-21T07:12:50.546Z,0.91
2019-02-21T07:17:59.930Z,0.79
2019-02-21T07:23:11.177Z,0.95
2019-02-21T07:28:18.126Z,1.05
2019-02-21T07:33:28.764Z,0.83
2019-02-21T07:38:36.994Z,0.91
2019-02-21T07:43:46.627Z,0.79
2019-02-21T07:48:57.547Z,1.03
2019-02-21T07:59:01.274Z,0.66
2019-02-21T08:04:10.331Z,0.66
2019-02-21T08:09:19.702Z,0.61
2019-02-21T08:14:28.891Z,0.64
2019-02-21T08:19:38.125Z,0.51
2019-02-21T08:24:47.136Z,0.60
2019-02-21T08:29:56.348Z,0.58
2019-02-21T08:35:06.878Z,0.53
2019-02-21T08:40:14.250Z,0.53
2019-02-21T08:45:23.334Z,0.95
2019-02-21T08:50:32.550Z,0.72
2019-02-21T08:55:41.911Z,0.83
2019-02-21T09:00:54.109Z,1.15
2019-02-21T09:06:00.125Z,1.35
2019-02-21T09:11:09.596Z,1.09
2019-02-21T09:16:18.692Z,1.25
2019-02-21T09:21:27.946Z,1.30
2019-02-21T09:26:36.962Z,1.10
2019-02-21T09:31:46.120Z,0.96
2019-02-21T09:36:55.282Z,1.11
2019-02-21T09:42:08.018Z,1.49
2019-02-21T09:47:07.030Z,1.25
2019-02-21T09:52:16.192Z,1.36
2019-02-21T09:57:25.382Z,1.38
2019-02-21T10:02:34.480Z,1.34
2019-02-21T10:07:43.522Z,1.41
2019-02-21T10:12:53.138Z,1.28
2019-02-21T10:18:02.220Z,1.67
2019-02-21T10:23:11.389Z,1.63
2019-02-21T10:28:20.478Z,1.42
2019-02-21T10:33:29.651Z,1.08
2019-02-21T10:38:39.292Z,1.37
2019-02-21T10:43:53.590Z,1.24
2019-02-21T10:48:53.287Z,1.67
2019-02-21T10:54:02.619Z,1.76
2019-02-21T10:59:11.707Z,1.42
2019-02-21T11:04:20.937Z,1.36
2019-02-21T11:09:30.047Z,1.19
2019-02-21T11:14:47.424Z,1.27
2019-02-21T11:19:49.334Z,1.19
2019-02-21T11:24:58.485Z,1.60
2019-02-21T11:30:07.547Z,2.22
2019-02-21T11:35:16.743Z,1.74
2019-02-21T11:40:25.826Z,1.49
2019-02-21T11:45:35.211Z,1.67
2019-02-21T11:50:44.266Z,1.58
2019-02-21T11:55:53.884Z,1.66
2019-02-21T12:01:03.087Z,1.55
2019-02-21T12:06:14.529Z,1.51
2019-02-21T12:11:14.595Z,1.35
2019-02-21T12:16:13.707Z,1.26
2019-02-21T12:21:22.906Z,1.55
2019-02-21T12:26:38.380Z,1.29
2019-02-21T12:31:37.334Z,1.37
2019-02-21T12:36:46.571Z,1.21
2019-02-21T12:41:55.624Z,0.97
2019-02-21T12:47:04.770Z,0.81
2019-02-21T12:52:13.847Z,1.09
2019-02-21T12:57:22.985Z,0.92
2019-02-21T13:02:32.070Z,0.96
2019-02-21T13:07:41.361Z,1.12
2019-02-21T13:12:50.886Z,0.98
2019-02-21T13:18:00.047Z,0.98
2019-02-21T13:23:09.126Z,0.92
2019-02-21T13:28:18.339Z,0.98
2019-02-21T13:33:27.419Z,0.90
2019-02-21T13:38:36.530Z,1.00
2019-02-21T13:43:45.578Z,0.85
2019-02-21T13:48:54.930Z,1.01
2019-02-21T13:54:03.999Z,0.93
2019-02-21T13:59:13.073Z,0.87
2019-02-21T14:04:22.143Z,0.80
2019-02-21T14:09:31.403Z,0.92
2019-02-21T14:14:42.407Z,0.84
2019-02-21T14:19:49.128Z,1.06
2019-02-21T14:24:58.221Z,1.13
2019-02-21T14:30:07.419Z,0.99
2019-02-21T14:35:16.552Z,0.97
2019-02-21T14:40:25.683Z,1.08
2019-02-21T14:45:34.721Z,1.07
2019-02-21T14:50:43.792Z,0.94
2019-02-21T14:55:52.819Z,1.00
2019-02-21T15:01:02.013Z,1.18
2019-02-21T15:06:11.249Z,1.05
2019-02-21T15:11:20.574Z,0.82
2019-02-21T15:16:29.648Z,0.88
2019-02-21T15:21:38.798Z,1.19
2019-02-21T15:26:47.871Z,0.91
2019-02-21T15:31:56.971Z,1.15
2019-02-21T15:37:06.002Z,1.03
2019-02-21T15:42:15.147Z,0.75
2019-02-21T15:47:24.172Z,0.86
2019-02-21T15:52:33.295Z,0.88
2019-02-21T15:57:42.561Z,0.94
2019-02-21T16:02:51.993Z,0.96
2019-02-21T16:08:01.043Z,0.88
2019-02-21T16:13:10.688Z,1.18
2019-02-21T16:18:18.719Z,0.97
2019-02-21T16:23:28.010Z,0.81
2019-02-21T16:28:37.026Z,0.93
2019-02-21T16:33:46.241Z,0.98
2019-02-21T16:38:55.319Z,0.92
2019-02-21T16:44:06.917Z,0.75
2019-02-21T16:49:13.013Z,0.99
2019-02-21T16:54:22.107Z,0.90
2019-02-21T16:59:31.131Z,1.04
2019-02-21T17:04:40.226Z,0.90
2019-02-21T17:09:49.439Z,0.94
2019-02-21T17:14:58.518Z,0.86
2019-02-21T17:20:07.692Z,1.03
2019-02-21T17:25:16.679Z,0.93
2019-02-21T17:30:25.762Z,1.01
2019-02-21T17:35:34.852Z,0.99
2019-02-21T17:40:43.958Z,1.08
2019-02-21T17:45:53.390Z,1.06
2019-02-21T17:51:02.895Z,1.42
2019-02-21T17:56:11.938Z,1.09
2019-02-21T18:01:21.029Z,1.02
2019-02-21T18:06:30.054Z,1.05
2019-02-21T18:11:39.198Z,1.12
2019-02-21T18:16:48.311Z,1.05
2019-02-21T18:21:59.575Z,1.13
2019-02-21T18:26:59.561Z,0.97
2019-02-21T18:32:09.693Z,1.33
2019-02-21T18:37:11.482Z,1.27
2019-02-21T18:42:12.419Z,1.22
2019-02-21T18:47:25.293Z,1.05
2019-02-21T18:52:15.538Z,1.05
2019-02-21T18:57:14.595Z,1.20
2019-02-21T19:02:24.242Z,1.20
2019-02-21T19:07:33.330Z,1.16
2019-02-21T19:12:42.530Z,1.17
2019-02-21T19:18:03.611Z,1.02
2019-02-21T19:22:53.081Z,1.05
2019-02-21T19:28:02.354Z,1.07
2019-02-21T19:33:12.074Z,0.99
2019-02-21T19:38:22.311Z,1.27
2019-02-21T19:43:21.498Z,1.00
2019-02-21T19:48:31.091Z,1.04
2019-02-21T19:53:40.321Z,0.88
2019-02-21T19:58:49.704Z,1.11
2019-02-21T20:03:58.775Z,1.04
2019-02-21T20:09:08.011Z,0.90
2019-02-21T20:14:17.194Z,0.91
2019-02-21T20:19:27.451Z,0.91
2019-02-21T20:24:26.575Z,0.85
2019-02-21T20:29:35.902Z,1.02
2019-02-21T20:34:45.168Z,0.98
2019-02-21T20:39:55.185Z,0.85
2019-02-21T20:45:01.918Z,0.94
2019-02-21T20:50:11.138Z,0.90
2019-02-21T20:55:20.322Z,0.80
2019-02-21T21:00:29.796Z,0.91
2019-02-21T21:05:38.877Z,0.77
2019-02-21T21:10:48.164Z,0.83
2019-02-21T21:15:58.567Z,0.71
2019-02-21T21:20:57.677Z,0.94
2019-02-21T21:26:07.183Z,0.85
2019-02-21T21:31:16.738Z,0.84
2019-02-21T21:36:25.946Z,0.90
2019-02-21T21:41:36.042Z,1.01
2019-02-21T21:46:35.093Z,0.94
2019-02-21T21:51:44.464Z,0.90
2019-02-21T21:56:53.596Z,1.10
2019-02-21T22:02:02.842Z,0.91
2019-02-21T22:07:12.389Z,1.30
2019-02-21T22:12:21.995Z,1.35
2019-02-21T22:17:31.268Z,1.04
2019-02-21T22:22:40.495Z,0.97
2019-02-21T22:27:49.852Z,0.97
2019-02-21T22:33:00.062Z,0.90
2019-02-21T22:38:00.620Z,0.83
2019-02-21T22:43:01.163Z,1.23
2019-02-21T22:48:00.551Z,0.90
2019-02-21T22:53:10.487Z,1.14
2019-02-21T22:58:19.786Z,0.94
2019-02-21T23:03:29.084Z,1.06
2019-02-21T23:08:38.168Z,0.91
2019-02-21T23:13:47.318Z,0.94
2019-02-21T23:18:56.410Z,1.00
2019-02-21T23:24:05.643Z,1.01
2019-02-21T23:29:14.827Z,1.05
2019-02-21T23:34:24.418Z,0.88
2019-02-21T23:39:38.348Z,0.93
2019-02-21T23:44:42.221Z,1.02
2019-02-21T23:49:51.457Z,1.07
2019-02-21T23:55:00.604Z,0.93
